Time;durP1;ratioP1;P1;durP2;ratioP2;P2;SDS_P1;SDS_P2;PMS_P1;PMS_P2;Temp;Humidity;BMP_temperature;BMP_pressure;BME280_temperature;BME280_humidity;BME280_pressure;Samples;Min_cycle;Max_cycle;Signal;HPM_P1;HPM_P2
2023/12/08 00:00:36;;;;;;;10.23;6.10;;;;;;;2.68;48.74;100476.38;4932344;29;20047;-75
2023/12/08 00:03:06;;;;;;;9.25;5.63;;;;;;;2.69;48.53;100478.13;4932706;29;20043;-75
2023/12/08 00:05:34;;;;;;;8.77;5.70;;;;;;;2.69;48.63;100470.03;4931619;29;20403;-75
2023/12/08 00:08:02;;;;;;;8.13;5.78;;;;;;;2.69;48.53;100455.63;4931376;29;20698;-75
2023/12/08 00:10:30;;;;;;;9.30;5.78;;;;;;;2.69;48.44;100445.69;4932658;29;20047;-74
2023/12/08 00:12:58;;;;;;;9.93;6.07;;;;;;;2.68;48.43;100445.78;4927973;29;20095;-75
2023/12/08 00:15:26;;;;;;;8.88;5.85;;;;;;;2.68;48.44;100454.75;4915841;29;20047;-75
2023/12/08 00:17:54;;;;;;;9.75;5.95;;;;;;;2.67;48.41;100462.97;4928949;29;20147;-75
2023/12/08 00:20:24;;;;;;;10.68;6.40;;;;;;;2.68;48.09;100437.69;4926913;29;20044;-74
2023/12/08 00:22:52;;;;;;;10.68;6.63;;;;;;;2.67;48.38;100434.13;4933079;29;20412;-75
2023/12/08 00:25:20;;;;;;;9.18;5.93;;;;;;;2.67;48.28;100431.41;4916059;29;20051;-75
2023/12/08 00:27:48;;;;;;;9.82;6.18;;;;;;;2.64;48.26;100437.91;4916589;29;20083;-74
2023/12/08 00:30:16;;;;;;;11.07;6.93;;;;;;;2.59;47.78;100420.22;4934803;29;20130;-75
2023/12/08 00:32:44;;;;;;;9.77;6.65;;;;;;;2.62;48.00;100422.72;4916427;29;20059;-75
2023/12/08 00:35:12;;;;;;;9.68;6.15;;;;;;;2.61;47.90;100397.53;4915029;29;20051;-75
2023/12/08 00:37:42;;;;;;;9.75;6.18;;;;;;;2.59;47.68;100410.28;4930012;29;20082;-75
2023/12/08 00:40:12;;;;;;;9.75;6.28;;;;;;;2.61;47.84;100412.88;4915784;29;20047;-75
2023/12/08 00:42:39;;;;;;;8.85;6.13;;;;;;;2.59;48.12;100410.28;4913924;29;20043;-75
2023/12/08 00:45:08;;;;;;;7.97;5.70;;;;;;;2.61;47.89;100400.25;4930287;29;20117;-75
2023/12/08 00:47:36;;;;;;;10.82;6.72;;;;;;;2.60;47.60;100387.69;4912456;29;20416;-75
2023/12/08 00:50:07;;;;;;;10.63;6.70;;;;;;;2.58;47.71;100381.50;4932527;29;20449;-74
2023/12/08 00:52:35;;;;;;;9.68;6.05;;;;;;;2.61;47.85;100369.66;4934569;28;20063;-74
2023/12/08 00:55:05;;;;;;;9.43;6.10;;;;;;;2.60;47.54;100376.03;4918031;29;20063;-74
2023/12/08 00:57:32;;;;;;;9.18;5.82;;;;;;;2.62;47.83;100425.44;4932632;28;20539;-75
2023/12/08 01:00:01;;;;;;;9.43;5.60;;;;;;;2.63;47.80;100403.72;4933092;29;20131;-75
2023/12/08 01:02:29;;;;;;;9.38;5.95;;;;;;;2.63;47.80;100409.13;4934661;29;20090;-75
2023/12/08 01:04:57;;;;;;;10.05;6.10;;;;;;;2.66;47.76;100401.81;4913157;29;20146;-75
2023/12/08 01:07:24;;;;;;;9.38;5.93;;;;;;;2.66;47.86;100388.31;4909785;29;20054;-74
2023/12/08 01:09:53;;;;;;;9.65;6.30;;;;;;;2.66;47.72;100385.59;4918043;29;20047;-75
2023/12/08 01:12:22;;;;;;;9.23;5.85;;;;;;;2.69;47.60;100390.78;4932530;28;20579;-75
2023/12/08 01:14:50;;;;;;;8.65;5.80;;;;;;;2.69;47.71;100396.19;4932596;29;20135;-75
2023/12/08 01:17:19;;;;;;;9.70;5.80;;;;;;;2.70;47.80;100382.59;4930705;29;20374;-74
2023/12/08 01:19:47;;;;;;;9.50;5.68;;;;;;;2.71;47.92;100373.53;4927174;28;20489;-75
2023/12/08 01:22:15;;;;;;;9.35;6.20;;;;;;;2.71;47.68;100372.66;4931660;29;20107;-74
2023/12/08 01:24:42;;;;;;;9.40;5.82;;;;;;;2.72;47.82;100377.97;4932295;29;20065;-75
2023/12/08 01:27:10;;;;;;;10.90;6.53;;;;;;;2.74;47.63;100402.19;4934104;29;20098;-75
2023/12/08 01:29:40;;;;;;;10.55;6.20;;;;;;;2.73;47.41;100409.44;4929292;29;20039;-75
2023/12/08 01:32:08;;;;;;;9.73;5.82;;;;;;;2.75;47.59;100412.88;4930561;29;20044;-75
2023/12/08 01:34:36;;;;;;;10.10;6.07;;;;;;;2.76;47.70;100406.53;4930929;29;20045;-75
2023/12/08 01:37:04;;;;;;;10.02;6.20;;;;;;;2.79;47.69;100405.47;4932056;28;20044;-75
2023/12/08 01:39:32;;;;;;;11.15;7.03;;;;;;;2.79;47.63;100394.66;4941326;28;20044;-75
2023/12/08 01:42:00;;;;;;;10.48;6.70;;;;;;;2.78;47.49;100395.63;4917208;29;20051;-75
2023/12/08 01:44:28;;;;;;;12.15;7.10;;;;;;;2.80;47.65;100399.97;4932434;29;20576;-75
2023/12/08 01:46:58;;;;;;;12.05;7.45;;;;;;;2.81;47.30;100403.56;4927620;29;20090;-74
2023/12/08 01:49:26;;;;;;;11.77;7.38;;;;;;;2.80;47.59;100388.28;4932827;28;20043;-75
2023/12/08 01:51:54;;;;;;;10.85;7.13;;;;;;;2.80;47.48;100382.91;4929426;29;20036;-75
2023/12/08 01:54:23;;;;;;;9.98;6.43;;;;;;;2.81;47.55;100381.94;4926598;29;20047;-75
2023/12/08 01:56:50;;;;;;;10.40;6.90;;;;;;;2.80;47.54;100370.25;4934861;29;20039;-75
2023/12/08 01:59:19;;;;;;;10.82;6.55;;;;;;;2.80;47.36;100374.78;4930813;29;20043;-75
2023/12/08 02:01:47;;;;;;;11.13;6.80;;;;;;;2.82;47.47;100370.16;4915670;29;20051;-75
2023/12/08 02:04:17;;;;;;;9.55;6.53;;;;;;;2.83;47.36;100379.97;4933525;29;20040;-75
2023/12/08 02:06:45;;;;;;;9.63;6.38;;;;;;;2.82;47.48;100371.03;4932326;29;20590;-75
2023/12/08 02:09:17;;;;;;;12.57;7.10;;;;;;;2.79;47.50;100378.44;4921384;29;20058;-75
2023/12/08 02:11:45;;;;;;;12.55;6.85;;;;;;;2.82;47.52;100387.25;4926724;29;20055;-75
2023/12/08 02:14:15;;;;;;;11.13;6.97;;;;;;;2.81;47.63;100366.59;4931761;29;20043;-75
2023/12/08 02:16:50;;;;;;;9.90;6.78;;;;;;;2.80;47.59;100372.94;4935420;29;20127;-75
2023/12/08 02:19:20;;;;;;;12.48;7.22;;;;;;;2.81;47.73;100357.63;4931754;29;20055;-76
2023/12/08 02:21:48;;;;;;;10.25;6.95;;;;;;;2.81;47.96;100358.47;4932319;29;20501;-76
2023/12/08 02:24:19;;;;;;;11.48;7.43;;;;;;;2.82;47.91;100348.53;4926393;29;20055;-76
2023/12/08 02:26:48;;;;;;;11.57;7.57;;;;;;;2.79;48.02;100352.28;4930544;29;20465;-76
2023/12/08 02:29:16;;;;;;;11.95;7.35;;;;;;;2.78;48.02;100352.38;4934164;29;20039;-76
2023/12/08 02:31:46;;;;;;;13.05;8.13;;;;;;;2.77;48.20;100335.31;4931081;29;20505;-76
2023/12/08 02:34:16;;;;;;;10.35;6.40;;;;;;;2.74;48.12;100335.50;4930612;29;20576;-76
2023/12/08 02:36:46;;;;;;;12.57;7.78;;;;;;;2.73;48.22;100339.19;4914378;29;20055;-77
2023/12/08 02:39:16;;;;;;;13.15;7.40;;;;;;;2.72;48.28;100333.88;4929607;29;20063;-76
2023/12/08 02:41:46;;;;;;;11.30;6.95;;;;;;;2.70;48.44;100328.56;4913152;29;20083;-76
2023/12/08 02:44:14;;;;;;;11.88;7.20;;;;;;;2.68;48.30;100321.50;4919715;29;20048;-76
2023/12/08 02:46:42;;;;;;;12.23;7.47;;;;;;;2.65;48.43;100311.78;4929474;29;20048;-76
2023/12/08 02:49:10;;;;;;;11.98;7.78;;;;;;;2.61;48.53;100303.00;4929864;29;20485;-76
2023/12/08 02:51:38;;;;;;;14.35;8.82;;;;;;;2.58;48.60;100305.00;4945475;28;20094;-76
2023/12/08 02:54:06;;;;;;;11.57;7.22;;;;;;;2.58;48.67;100297.78;4925110;29;20036;-76
2023/12/08 02:56:34;;;;;;;11.25;7.28;;;;;;;2.57;48.67;100296.06;4929958;29;20044;-76
2023/12/08 02:59:03;;;;;;;10.15;6.70;;;;;;;2.56;48.53;100288.91;4933078;29;20054;-76
2023/12/08 03:01:31;;;;;;;10.40;6.88;;;;;;;2.54;48.80;100282.75;4912077;29;20074;-76
2023/12/08 03:03:59;;;;;;;10.90;6.65;;;;;;;2.54;48.71;100284.56;4928577;29;20044;-76
2023/12/08 03:06:27;;;;;;;11.85;7.40;;;;;;;2.52;48.92;100278.38;4933650;29;20044;-76
2023/12/08 03:08:55;;;;;;;11.23;6.97;;;;;;;2.54;48.95;100279.16;4929602;29;20047;-75
2023/12/08 03:11:23;;;;;;;9.60;6.35;;;;;;;2.53;48.94;100275.59;4929649;29;20531;-76
2023/12/08 03:13:51;;;;;;;12.07;7.05;;;;;;;2.52;49.02;100270.28;4929310;29;20547;-75
2023/12/08 03:16:21;;;;;;;11.25;6.55;;;;;;;2.54;49.04;100265.66;4933150;29;20459;-76
2023/12/08 03:18:48;;;;;;;11.27;6.88;;;;;;;2.52;49.09;100251.38;4932178;29;20516;-75
2023/12/08 03:21:23;;;;;;;10.68;7.25;;;;;;;2.54;48.86;100250.31;4932374;29;20051;-76
2023/12/08 03:23:52;;;;;;;10.90;6.85;;;;;;;2.52;48.94;100254.06;4923591;29;20135;-75
2023/12/08 03:26:20;;;;;;;12.20;7.45;;;;;;;2.50;49.05;100256.88;4951560;28;20035;-76
2023/12/08 03:28:48;;;;;;;11.98;7.30;;;;;;;2.46;49.14;100260.75;4934120;29;20102;-76
2023/12/08 03:31:25;;;;;;;12.15;7.03;;;;;;;2.51;48.68;100257.75;4936145;29;20055;-75
2023/12/08 03:33:56;;;;;;;11.15;7.30;;;;;;;2.49;49.06;100270.50;4932278;29;20067;-75
2023/12/08 03:36:24;;;;;;;10.82;7.03;;;;;;;2.49;49.13;100260.56;4933517;29;20433;-75
2023/12/08 03:38:52;;;;;;;8.80;5.72;;;;;;;2.49;49.15;100263.28;4919093;29;20066;-75
2023/12/08 03:41:20;;;;;;;11.80;6.82;;;;;;;2.51;49.20;100257.75;4932865;29;20062;-75
2023/12/08 03:43:47;;;;;;;12.05;7.53;;;;;;;2.52;49.26;100259.47;4930350;29;20193;-75
2023/12/08 03:46:15;;;;;;;10.82;7.25;;;;;;;2.52;48.81;100263.06;4934968;29;20040;-76
2023/12/08 03:48:45;;;;;;;10.80;6.80;;;;;;;2.52;48.87;100256.78;4931335;29;20056;-75
2023/12/08 03:51:14;;;;;;;11.48;6.78;;;;;;;2.53;49.03;100253.13;4916777;29;20071;-75
2023/12/08 03:53:42;;;;;;;11.57;7.03;;;;;;;2.53;49.00;100254.00;4933664;29;20052;-75
2023/12/08 03:56:10;;;;;;;10.82;6.95;;;;;;;2.54;49.04;100250.31;4920796;29;20039;-76
2023/12/08 03:58:38;;;;;;;10.48;6.88;;;;;;;2.54;49.03;100241.34;4932621;28;20530;-76
2023/12/08 04:01:06;;;;;;;11.18;7.32;;;;;;;2.56;49.01;100253.81;4934584;28;20147;-76
2023/12/08 04:03:34;;;;;;;10.93;6.63;;;;;;;2.56;49.22;100247.53;4934337;29;20592;-76
2023/12/08 04:06:03;;;;;;;10.10;6.47;;;;;;;2.56;49.16;100240.28;4933468;29;20139;-76
2023/12/08 04:08:32;;;;;;;11.82;6.63;;;;;;;2.56;49.29;100232.19;4939052;29;20065;-76
2023/12/08 04:11:00;;;;;;;10.88;6.50;;;;;;;2.56;49.25;100226.78;4920349;29;20052;-76
2023/12/08 04:13:28;;;;;;;9.98;6.47;;;;;;;2.56;49.48;100232.19;4914099;29;20533;-76
2023/12/08 04:15:55;;;;;;;11.35;7.18;;;;;;;2.56;49.31;100228.63;4914185;29;20050;-76
2023/12/08 04:18:24;;;;;;;11.25;6.95;;;;;;;2.55;49.47;100235.00;4919613;29;20555;-76
2023/12/08 04:20:52;;;;;;;11.52;6.97;;;;;;;2.56;49.52;100239.44;4938771;29;20504;-77
2023/12/08 04:23:21;;;;;;;11.52;6.97;;;;;;;2.57;49.55;100251.97;4937927;28;20610;-76
2023/12/08 04:25:49;;;;;;;11.80;7.22;;;;;;;2.55;49.61;100251.19;4935707;29;20501;-76
2023/12/08 04:28:17;;;;;;;11.95;6.50;;;;;;;2.55;49.61;100264.69;4920517;29;20071;-76
2023/12/08 04:30:45;;;;;;;10.43;6.80;;;;;;;2.55;49.75;100275.50;4933813;29;20110;-77
2023/12/08 04:33:13;;;;;;;11.30;7.18;;;;;;;2.55;49.76;100281.78;4919047;29;20051;-77
2023/12/08 04:35:41;;;;;;;10.43;7.13;;;;;;;2.54;49.81;100277.34;4916331;29;20047;-77
2023/12/08 04:38:09;;;;;;;10.65;6.97;;;;;;;2.55;49.86;100280.91;4914468;29;20116;-77
2023/12/08 04:40:38;;;;;;;12.23;7.18;;;;;;;2.55;49.80;100287.19;4933152;29;20050;-77
2023/12/08 04:43:06;;;;;;;11.07;7.00;;;;;;;2.55;50.13;100308.78;4948675;29;20119;-77
2023/12/08 04:45:34;;;;;;;12.25;7.03;;;;;;;2.55;50.02;100307.91;4947330;28;20040;-77
2023/12/08 04:48:02;;;;;;;10.15;6.57;;;;;;;2.55;50.37;100313.31;4930955;29;20390;-77
2023/12/08 04:50:30;;;;;;;10.55;6.85;;;;;;;2.55;50.29;100299.81;4915545;29;20054;-77
2023/12/08 04:52:58;;;;;;;12.38;7.60;;;;;;;2.55;50.21;100287.19;4930076;29;20082;-77
2023/12/08 04:55:25;;;;;;;12.18;7.43;;;;;;;2.55;50.34;100276.38;4937149;29;20049;-76
2023/12/08 04:57:55;;;;;;;13.27;8.05;;;;;;;2.55;50.45;100276.38;4933358;29;20052;-76
2023/12/08 05:00:22;;;;;;;12.10;7.95;;;;;;;2.54;50.63;100280.03;4916638;29;20047;-77
2023/12/08 05:02:50;;;;;;;12.63;7.90;;;;;;;2.52;50.70;100281.97;4916080;29;20071;-77
2023/12/08 05:05:18;;;;;;;14.93;8.55;;;;;;;2.53;50.49;100261.22;4918831;29;20059;-76
2023/12/08 05:07:46;;;;;;;14.23;9.00;;;;;;;2.50;50.72;100266.81;4933348;29;20075;-77
2023/12/08 05:10:14;;;;;;;14.55;8.50;;;;;;;2.46;50.76;100254.47;4934194;29;20057;-76
2023/12/08 05:12:42;;;;;;;13.45;8.73;;;;;;;2.46;50.77;100270.69;4934272;29;20103;-76
2023/12/08 05:15:12;;;;;;;12.25;8.50;;;;;;;2.46;50.90;100265.28;4931080;29;20130;-76
2023/12/08 05:17:40;;;;;;;16.63;9.88;;;;;;;2.42;50.92;100267.28;4929171;29;20056;-76
2023/12/08 05:20:10;;;;;;;13.77;8.93;;;;;;;2.42;50.96;100279.94;4917159;29;20059;-77
2023/12/08 05:22:39;;;;;;;14.15;8.48;;;;;;;2.39;50.88;100272.91;4937181;29;20050;-76
2023/12/08 05:25:08;;;;;;;12.55;7.57;;;;;;;2.38;50.93;100262.19;4933150;29;20048;-78
2023/12/08 05:27:36;;;;;;;12.77;8.18;;;;;;;2.38;51.15;100262.19;4915574;29;20531;-78
2023/12/08 05:30:05;;;;;;;13.55;8.07;;;;;;;2.36;51.18;100264.13;4925189;29;20119;-76
2023/12/08 05:32:35;;;;;;;14.50;8.70;;;;;;;2.35;51.13;100270.47;4916211;29;20405;-76
2023/12/08 05:35:03;;;;;;;13.32;7.93;;;;;;;2.32;51.22;100268.00;4931795;29;20510;-76
2023/12/08 05:37:31;;;;;;;11.90;7.57;;;;;;;2.32;51.28;100266.16;4933665;29;20047;-76
2023/12/08 05:39:59;;;;;;;13.80;8.43;;;;;;;2.31;51.27;100260.84;4933628;29;20044;-76
2023/12/08 05:42:27;;;;;;;12.75;7.90;;;;;;;2.32;51.55;100262.59;4915662;29;20058;-74
2023/12/08 05:44:55;;;;;;;15.30;8.23;;;;;;;2.30;51.54;100268.09;4927806;29;20043;-74
2023/12/08 05:47:23;;;;;;;12.57;8.00;;;;;;;2.31;51.46;100268.97;4911447;29;20067;-74
2023/12/08 05:49:52;;;;;;;13.23;8.55;;;;;;;2.31;51.36;100272.53;4909451;29;20139;-74
2023/12/08 05:52:21;;;;;;;14.60;8.73;;;;;;;2.30;51.51;100286.97;4929968;29;20087;-74
2023/12/08 05:54:49;;;;;;;14.32;8.30;;;;;;;2.30;51.52;100281.59;4942109;29;20138;-73
2023/12/08 05:57:17;;;;;;;15.85;8.35;;;;;;;2.31;51.67;100291.44;4931481;29;20108;-74
2023/12/08 05:59:45;;;;;;;16.20;9.13;;;;;;;2.31;51.74;100280.63;4927739;28;20048;-74
2023/12/08 06:02:13;;;;;;;13.50;8.07;;;;;;;2.32;51.71;100292.28;4934364;29;20512;-73
2023/12/08 06:04:40;;;;;;;14.27;9.00;;;;;;;2.31;51.71;100294.13;4927451;29;20048;-74
2023/12/08 06:07:10;;;;;;;15.15;8.48;;;;;;;2.32;51.78;100285.06;4927488;29;20126;-74
2023/12/08 06:09:39;;;;;;;14.05;9.63;;;;;;;2.29;51.85;100287.94;4935779;29;20131;-74
2023/12/08 06:12:07;;;;;;;15.35;8.95;;;;;;;2.30;51.84;100278.00;4905526;29;20064;-74
2023/12/08 06:14:35;;;;;;;14.73;8.88;;;;;;;2.29;51.96;100277.16;4925887;29;20118;-73
2023/12/08 06:17:03;;;;;;;12.32;8.68;;;;;;;2.30;51.84;100270.78;4927303;29;20535;-74
2023/12/08 06:19:34;;;;;;;16.23;9.30;;;;;;;2.31;51.89;100283.31;4941105;23;20110;-73
2023/12/08 06:22:02;;;;;;;13.32;8.90;;;;;;;2.31;51.91;100280.63;4923627;28;20047;-73
2023/12/08 06:24:31;;;;;;;12.75;8.32;;;;;;;2.33;52.01;100272.44;4932623;29;20048;-73
2023/12/08 06:26:59;;;;;;;13.77;8.63;;;;;;;2.31;52.05;100259.03;4932947;29;20126;-73
2023/12/08 06:29:27;;;;;;;14.30;8.65;;;;;;;2.32;52.14;100270.69;4932882;29;20051;-75
2023/12/08 06:31:57;;;;;;;13.90;8.80;;;;;;;2.31;52.06;100266.25;4945486;29;20508;-72
2023/12/08 06:34:25;;;;;;;14.63;9.32;;;;;;;2.31;52.20;100277.06;4948940;29;20063;-73
2023/12/08 06:36:54;;;;;;;15.68;8.65;;;;;;;2.32;52.19;100279.66;4929899;29;20074;-73
2023/12/08 06:39:22;;;;;;;12.75;9.07;;;;;;;2.31;52.22;100280.63;4931226;29;20071;-74
2023/12/08 06:41:52;;;;;;;13.32;8.77;;;;;;;2.33;52.27;100286.78;4936181;29;20074;-73
2023/12/08 06:44:20;;;;;;;13.40;8.15;;;;;;;2.33;52.21;100296.75;4928631;29;20524;-74
2023/12/08 06:46:48;;;;;;;14.55;9.25;;;;;;;2.32;52.27;100293.16;4921929;29;20146;-74
2023/12/08 06:49:15;;;;;;;15.10;9.02;;;;;;;2.34;52.28;100298.44;4937083;29;22020;-73
2023/12/08 06:51:43;;;;;;;16.00;10.07;;;;;;;2.33;52.33;100294.88;4923933;29;20069;-73
2023/12/08 06:54:11;;;;;;;13.68;9.27;;;;;;;2.33;52.27;100286.78;4940790;29;20470;-73
2023/12/08 06:56:41;;;;;;;15.57;9.15;;;;;;;2.36;52.06;100299.22;4931103;29;20062;-73
2023/12/08 06:59:10;;;;;;;15.27;8.90;;;;;;;2.36;52.10;100293.81;4916439;29;20044;-73
2023/12/08 07:01:38;;;;;;;16.38;9.50;;;;;;;2.33;52.45;100292.19;4928866;29;20051;-73
2023/12/08 07:04:06;;;;;;;17.20;9.73;;;;;;;2.35;52.46;100298.34;4944861;29;20047;-74
2023/12/08 07:06:34;;;;;;;15.98;9.30;;;;;;;2.36;52.55;100291.13;4926968;29;20165;-74
2023/12/08 07:09:03;;;;;;;15.85;9.63;;;;;;;2.36;52.42;100308.19;4923129;29;20457;-74
2023/12/08 07:11:31;;;;;;;16.38;9.48;;;;;;;2.37;52.49;100300.97;4928711;29;20051;-74
2023/12/08 07:13:58;;;;;;;14.18;9.02;;;;;;;2.36;52.44;100304.63;4923928;29;20142;-74
2023/12/08 07:16:28;;;;;;;15.70;8.77;;;;;;;2.37;52.53;100307.22;4923599;29;20048;-74
2023/12/08 07:18:57;;;;;;;14.98;9.25;;;;;;;2.38;52.44;100302.72;4932295;29;20106;-74
2023/12/08 07:21:26;;;;;;;14.50;9.07;;;;;;;2.37;52.53;100301.84;4941049;29;20040;-74
2023/12/08 07:23:53;;;;;;;15.40;9.18;;;;;;;2.39;52.70;100312.56;4928298;29;20047;-74
2023/12/08 07:26:21;;;;;;;14.73;9.55;;;;;;;2.40;52.44;100315.16;4941365;29;20052;-74
2023/12/08 07:28:49;;;;;;;14.05;9.10;;;;;;;2.40;52.71;100320.56;4922233;29;20071;-76
2023/12/08 07:31:17;;;;;;;16.10;9.52;;;;;;;2.40;52.60;100312.47;4942310;29;20047;-76
2023/12/08 07:33:46;;;;;;;14.77;8.93;;;;;;;2.42;52.58;100307.81;4939028;29;20110;-77
2023/12/08 07:36:14;;;;;;;15.52;9.50;;;;;;;2.42;52.67;100297.00;4940478;29;20603;-76
2023/12/08 07:38:42;;;;;;;16.10;10.23;;;;;;;2.41;52.98;100299.81;4921054;29;20047;-76
2023/12/08 07:41:10;;;;;;;16.38;9.05;;;;;;;2.42;52.59;100310.50;4923272;29;20106;-76
2023/12/08 07:43:38;;;;;;;16.60;9.98;;;;;;;2.42;52.76;100304.22;4924451;29;20047;-76
2023/12/08 07:46:07;;;;;;;15.98;9.77;;;;;;;2.43;52.78;100314.94;4925671;29;20119;-76
2023/12/08 07:48:35;;;;;;;16.42;10.48;;;;;;;2.43;52.77;100300.56;4924876;29;20078;-76
2023/12/08 07:51:05;;;;;;;15.60;9.68;;;;;;;2.43;52.77;100306.84;4941831;29;20517;-76
2023/12/08 07:53:33;;;;;;;16.05;9.32;;;;;;;2.43;52.66;100308.69;4947594;29;20142;-77
2023/12/08 07:56:02;;;;;;;13.80;9.02;;;;;;;2.45;52.75;100322.97;4923826;29;20523;-74
2023/12/08 07:58:30;;;;;;;14.63;9.30;;;;;;;2.44;52.87;100322.09;4933092;29;20478;-74
2023/12/08 08:00:57;;;;;;;15.10;9.55;;;;;;;2.45;52.87;100318.44;4926336;29;20525;-74
2023/12/08 08:03:26;;;;;;;14.55;9.10;;;;;;;2.46;52.80;100324.69;4938213;29;20044;-73
2023/12/08 08:05:54;;;;;;;14.05;8.55;;;;;;;2.48;52.91;100330.88;4928183;29;20288;-73
2023/12/08 08:08:23;;;;;;;15.38;8.57;;;;;;;2.50;53.00;100328.94;4938696;29;20512;-73
2023/12/08 08:10:51;;;;;;;15.90;8.82;;;;;;;2.48;53.06;100331.75;4944539;29;20051;-73
2023/12/08 08:13:19;;;;;;;15.77;9.07;;;;;;;2.50;53.00;100326.22;4940246;29;20043;-73
2023/12/08 08:15:47;;;;;;;14.05;9.52;;;;;;;2.51;52.89;100325.28;4939862;29;20059;-73
2023/12/08 08:18:14;;;;;;;14.82;9.25;;;;;;;2.52;52.92;100325.19;4938675;29;20043;-72
2023/12/08 08:20:42;;;;;;;17.40;10.27;;;;;;;2.53;52.88;100331.44;4941118;29;20416;-73
2023/12/08 08:23:10;;;;;;;14.63;8.90;;;;;;;2.54;52.96;100339.47;4928173;29;20047;-73
2023/12/08 08:25:40;;;;;;;15.90;9.27;;;;;;;2.56;53.04;100345.66;4946286;29;20412;-73
2023/12/08 08:28:08;;;;;;;14.25;9.07;;;;;;;2.54;53.24;100339.47;4932441;29;20107;-73
2023/12/08 08:30:36;;;;;;;15.63;9.27;;;;;;;2.56;52.94;100351.06;4924426;29;20054;-73
2023/12/08 08:33:04;;;;;;;14.68;9.15;;;;;;;2.57;52.99;100357.31;4937366;29;20093;-73
2023/12/08 08:35:32;;;;;;;14.85;9.20;;;;;;;2.59;53.13;100355.38;4944645;29;20399;-73
2023/12/08 08:38:00;;;;;;;14.65;9.82;;;;;;;2.58;53.22;100350.94;4945472;28;20118;-73
2023/12/08 08:40:28;;;;;;;13.88;8.80;;;;;;;2.58;53.16;100342.81;4926720;29;20053;-73
2023/12/08 08:42:57;;;;;;;13.68;8.73;;;;;;;2.62;53.25;100347.09;4940276;29;20047;-74
2023/12/08 08:45:25;;;;;;;16.98;9.90;;;;;;;2.62;53.16;100347.97;4944546;29;20079;-73
2023/12/08 08:47:53;;;;;;;14.77;9.57;;;;;;;2.63;52.96;100356.94;4917866;29;20056;-74
2023/12/08 08:50:22;;;;;;;16.67;9.55;;;;;;;2.62;52.96;100350.66;4939594;29;20040;-74
2023/12/08 08:52:50;;;;;;;14.57;8.98;;;;;;;2.64;53.34;100356.84;4945004;29;20052;-74
2023/12/08 08:55:18;;;;;;;16.58;9.32;;;;;;;2.64;53.27;100361.38;4925435;29;20079;-74
2023/12/08 08:57:47;;;;;;;16.13;9.27;;;;;;;2.64;53.53;100354.13;4944530;29;20578;-74
2023/12/08 09:00:18;;;;;;;14.07;8.93;;;;;;;2.68;53.30;100362.03;4932853;28;20105;-75
2023/12/08 09:02:51;;;;;;;15.27;9.02;;;;;;;2.67;53.38;100363.88;4941538;29;20055;-74
2023/12/08 09:05:20;;;;;;;15.52;9.20;;;;;;;2.68;53.31;100364.72;4923391;29;20074;-74
2023/12/08 09:07:48;;;;;;;14.55;9.07;;;;;;;2.69;53.40;100369.19;4941768;29;20059;-74
2023/12/08 09:10:16;;;;;;;14.85;9.07;;;;;;;2.69;53.41;100374.59;4922823;29;20048;-74
2023/12/08 09:12:45;;;;;;;15.93;9.90;;;;;;;2.69;53.50;100375.44;4925527;29;20047;-74
2023/12/08 09:15:13;;;;;;;14.43;9.25;;;;;;;2.70;53.47;100377.19;4941072;29;20570;-74
2023/12/08 09:17:43;;;;;;;14.90;9.57;;;;;;;2.71;53.65;100373.53;4938383;29;20093;-74
2023/12/08 09:20:14;;;;;;;15.27;10.35;;;;;;;2.70;53.70;100362.81;4935785;29;20057;-74
2023/12/08 09:22:42;;;;;;;15.25;9.55;;;;;;;2.71;53.72;100372.66;4933433;29;20047;-74
2023/12/08 09:25:10;;;;;;;15.48;9.40;;;;;;;2.73;53.72;100376.16;4922562;29;20098;-74
2023/12/08 09:27:39;;;;;;;16.98;9.70;;;;;;;2.71;53.90;100369.97;4938161;29;20055;-74
2023/12/08 09:30:08;;;;;;;17.45;10.18;;;;;;;2.73;54.06;100374.31;4940058;29;20039;-74
2023/12/08 09:32:36;;;;;;;15.82;9.73;;;;;;;2.74;53.79;100370.63;4941090;29;20453;-74
2023/12/08 09:35:07;;;;;;;14.40;8.95;;;;;;;2.75;53.91;100372.34;4926833;29;20054;-74
2023/12/08 09:37:35;;;;;;;16.50;9.80;;;;;;;2.74;53.99;100386.00;4936948;29;20529;-74
2023/12/08 09:40:08;;;;;;;16.25;9.27;;;;;;;2.75;54.32;100385.88;4933136;29;20043;-75
2023/12/08 09:42:40;;;;;;;15.77;9.88;;;;;;;2.76;54.08;100381.34;4918132;29;20051;-74
2023/12/08 09:45:09;;;;;;;16.55;9.45;;;;;;;2.78;54.28;100384.81;4943214;29;20075;-74
2023/12/08 09:47:41;;;;;;;15.90;10.25;;;;;;;2.79;54.36;100383.84;4937202;29;20114;-75
2023/12/08 09:50:13;;;;;;;14.55;9.93;;;;;;;2.78;54.66;100380.28;4918177;29;20517;-74
2023/12/08 09:52:41;;;;;;;15.65;10.18;;;;;;;2.76;54.42;100386.75;4925489;29;20059;-73
2023/12/08 09:55:11;;;;;;;16.45;10.23;;;;;;;2.79;54.30;100386.56;4931823;29;20537;-73
2023/12/08 09:57:43;;;;;;;16.58;9.20;;;;;;;2.78;54.43;100391.09;4936143;29;20047;-74
2023/12/08 10:00:13;;;;;;;14.48;8.82;;;;;;;2.76;54.43;100393.00;4918078;29;20457;-74
2023/12/08 10:02:42;;;;;;;16.50;9.48;;;;;;;2.78;54.44;100391.09;4921656;29;20051;-74
2023/12/08 10:05:12;;;;;;;15.73;9.25;;;;;;;2.79;54.44;100389.25;4932481;29;20110;-74
2023/12/08 10:07:43;;;;;;;15.85;9.63;;;;;;;2.79;54.33;100387.44;4918821;29;20051;-74
2023/12/08 10:10:11;;;;;;;18.20;9.15;;;;;;;2.80;54.51;100385.59;4916915;29;20046;-74
2023/12/08 10:12:40;;;;;;;16.67;9.57;;;;;;;2.80;54.55;100381.06;4941556;29;20071;-74
2023/12/08 10:15:10;;;;;;;14.45;8.98;;;;;;;2.81;54.84;100377.41;4939774;29;20531;-74
2023/12/08 10:17:47;;;;;;;15.00;8.80;;;;;;;2.85;55.21;100391.56;4941134;29;20051;-74
2023/12/08 10:20:20;;;;;;;14.95;8.48;;;;;;;2.83;55.10;100390.78;4926421;29;20272;-74
2023/12/08 10:22:50;;;;;;;14.75;8.88;;;;;;;2.85;54.84;100373.53;4936562;29;20066;-74
2023/12/08 10:25:19;;;;;;;16.85;9.30;;;;;;;2.85;54.88;100376.22;4941335;29;20463;-74
2023/12/08 10:27:49;;;;;;;18.30;10.50;;;;;;;2.85;54.81;100381.63;4941908;29;20660;-74
2023/12/08 10:30:19;;;;;;;15.52;9.48;;;;;;;2.86;54.88;100380.66;4920812;29;20509;-74
2023/12/08 10:32:47;;;;;;;16.02;9.68;;;;;;;2.86;54.89;100394.19;4927941;29;20520;-74
2023/12/08 10:35:15;;;;;;;15.27;8.65;;;;;;;2.89;54.96;100398.53;4926972;29;20528;-74
2023/12/08 10:37:45;;;;;;;17.10;9.30;;;;;;;2.90;55.23;100394.88;4927028;29;20043;-74
2023/12/08 10:40:18;;;;;;;15.98;9.45;;;;;;;2.91;55.02;100383.06;4926548;29;20031;-74
2023/12/08 10:42:48;;;;;;;16.33;9.98;;;;;;;2.93;55.16;100394.66;4944643;29;20580;-74
2023/12/08 10:45:17;;;;;;;15.65;9.57;;;;;;;2.92;55.29;100393.78;4940929;29;20106;-74
2023/12/08 10:47:49;;;;;;;18.00;10.35;;;;;;;2.94;55.20;100393.69;4943271;29;20052;-74
2023/12/08 10:50:18;;;;;;;16.88;9.15;;;;;;;2.94;55.23;100401.81;4938068;29;20126;-74
2023/12/08 10:52:48;;;;;;;16.58;9.55;;;;;;;2.98;55.50;100400.66;4939052;29;20083;-74
2023/12/08 10:55:17;;;;;;;15.20;8.75;;;;;;;2.98;55.28;100400.66;4942362;29;20051;-74
2023/12/08 10:57:47;;;;;;;15.30;9.40;;;;;;;3.00;55.67;100391.47;4938687;29;20177;-74
2023/12/08 11:00:18;;;;;;;15.65;9.98;;;;;;;3.01;55.36;100400.44;4924087;29;20051;-74
2023/12/08 11:02:49;;;;;;;17.80;9.70;;;;;;;3.03;55.60;100404.78;4941575;29;20401;-74
2023/12/08 11:05:26;;;;;;;17.40;9.57;;;;;;;3.06;55.94;100405.56;4923208;29;20138;-74
2023/12/08 11:07:58;;;;;;;17.15;9.68;;;;;;;3.07;56.04;100396.50;4938657;29;20047;-74
2023/12/08 11:10:29;;;;;;;15.97;9.40;;;;;;;3.06;55.93;100392.94;4918677;29;20043;-73
2023/12/08 11:13:02;;;;;;;15.40;8.77;;;;;;;3.10;55.96;100399.00;4941316;29;20287;-73
2023/12/08 11:15:34;;;;;;;16.92;9.48;;;;;;;3.10;56.04;100391.75;4937997;29;20103;-73
2023/12/08 11:18:12;;;;;;;15.90;9.40;;;;;;;3.12;55.96;100402.47;4927049;29;20105;-73
2023/12/08 11:20:42;;;;;;;15.15;9.43;;;;;;;3.14;55.65;100411.38;4934141;29;20676;-73
2023/12/08 11:23:12;;;;;;;17.85;8.85;;;;;;;3.16;55.80;100418.38;4943261;29;20094;-73
2023/12/08 11:25:43;;;;;;;15.77;9.68;;;;;;;3.18;55.94;100415.59;4937750;29;20050;-73
2023/12/08 11:28:22;;;;;;;15.25;8.90;;;;;;;3.22;56.19;100417.16;4940999;29;20047;-73
2023/12/08 11:30:56;;;;;;;16.55;9.45;;;;;;;3.21;56.05;100429.78;4940151;29;20103;-74
2023/12/08 11:33:31;;;;;;;15.80;9.18;;;;;;;3.25;56.10;100425.91;4936400;29;20055;-72